sensor_id;sensor_type;location;lat;lon;timestamp;P1;durP1;ratioP1;P2;durP2;ratioP2
49422;SDS011;36998;51.974;20.150;2022-09-11T00:02:04;65.70;;;24.92;;
49422;SDS011;36998;51.974;20.150;2022-09-11T00:04:29;72.47;;;25.75;;
49422;SDS011;36998;51.974;20.150;2022-09-11T00:06:57;72.07;;;25.90;;
49422;SDS011;36998;51.974;20.150;2022-09-11T00:09:24;77.90;;;25.92;;
49422;SDS011;36998;51.974;20.150;2022-09-11T00:11:49;79.82;;;25.95;;
49422;SDS011;36998;51.974;20.150;2022-09-11T00:14:14;83.15;;;26.08;;
49422;SDS011;36998;51.974;20.150;2022-09-11T00:16:41;84.15;;;25.30;;
49422;SDS011;36998;51.974;20.150;2022-09-11T00:19:10;72.88;;;25.00;;
49422;SDS011;36998;51.974;20.150;2022-09-11T00:21:38;69.45;;;23.90;;
49422;SDS011;36998;51.974;20.150;2022-09-11T00:24:04;77.40;;;26.02;;
49422;SDS011;36998;51.974;20.150;2022-09-11T00:26:30;78.57;;;26.00;;
49422;SDS011;36998;51.974;20.150;2022-09-11T00:28:55;81.85;;;24.77;;
49422;SDS011;36998;51.974;20.150;2022-09-11T00:31:25;74.22;;;24.52;;
49422;SDS011;36998;51.974;20.150;2022-09-11T00:33:52;88.07;;;26.20;;
49422;SDS011;36998;51.974;20.150;2022-09-11T00:36:20;76.68;;;24.00;;
49422;SDS011;36998;51.974;20.150;2022-09-11T00:38:48;95.00;;;25.75;;
49422;SDS011;36998;51.974;20.150;2022-09-11T00:41:25;85.68;;;25.13;;
49422;SDS011;36998;51.974;20.150;2022-09-11T00:51:53;79.05;;;24.33;;
49422;SDS011;36998;51.974;20.150;2022-09-11T00:54:26;95.45;;;24.00;;
49422;SDS011;36998;51.974;20.150;2022-09-11T00:56:55;97.80;;;23.77;;
49422;SDS011;36998;51.974;20.150;2022-09-11T00:59:25;83.13;;;23.90;;
49422;SDS011;36998;51.974;20.150;2022-09-11T01:04:21;64.28;;;20.13;;
49422;SDS011;36998;51.974;20.150;2022-09-11T01:06:49;61.67;;;19.83;;
49422;SDS011;36998;51.974;20.150;2022-09-11T01:09:16;52.10;;;18.83;;
49422;SDS011;36998;51.974;20.150;2022-09-11T01:11:49;54.13;;;19.25;;
49422;SDS011;36998;51.974;20.150;2022-09-11T01:14:31;56.50;;;19.92;;
49422;SDS011;36998;51.974;20.150;2022-09-11T01:17:16;66.32;;;19.70;;
49422;SDS011;36998;51.974;20.150;2022-09-11T01:25:49;70.90;;;20.10;;
49422;SDS011;36998;51.974;20.150;2022-09-11T01:28:34;69.03;;;20.85;;
49422;SDS011;36998;51.974;20.150;2022-09-11T01:31:07;79.78;;;22.50;;
49422;SDS011;36998;51.974;20.150;2022-09-11T01:33:39;83.03;;;22.33;;
49422;SDS011;36998;51.974;20.150;2022-09-11T01:36:12;78.75;;;23.13;;
49422;SDS011;36998;51.974;20.150;2022-09-11T01:38:44;72.53;;;21.85;;
49422;SDS011;36998;51.974;20.150;2022-09-11T01:41:15;74.22;;;21.95;;
49422;SDS011;36998;51.974;20.150;2022-09-11T01:43:56;85.30;;;22.13;;
49422;SDS011;36998;51.974;20.150;2022-09-11T01:46:29;68.75;;;20.17;;
49422;SDS011;36998;51.974;20.150;2022-09-11T01:49:07;75.00;;;20.20;;
49422;SDS011;36998;51.974;20.150;2022-09-11T01:51:39;64.93;;;17.98;;
49422;SDS011;36998;51.974;20.150;2022-09-11T01:54:13;76.80;;;21.05;;
49422;SDS011;36998;51.974;20.150;2022-09-11T01:56:44;79.95;;;22.30;;
49422;SDS011;36998;51.974;20.150;2022-09-11T01:59:16;86.40;;;20.88;;
49422;SDS011;36998;51.974;20.150;2022-09-11T02:01:46;53.17;;;16.70;;
49422;SDS011;36998;51.974;20.150;2022-09-11T02:04:22;74.55;;;19.67;;
49422;SDS011;36998;51.974;20.150;2022-09-11T02:06:55;60.50;;;16.15;;
49422;SDS011;36998;51.974;20.150;2022-09-11T02:09:32;72.13;;;18.35;;
49422;SDS011;36998;51.974;20.150;2022-09-11T02:12:05;59.05;;;17.35;;
49422;SDS011;36998;51.974;20.150;2022-09-11T02:14:36;55.90;;;16.13;;
49422;SDS011;36998;51.974;20.150;2022-09-11T02:17:07;49.97;;;13.18;;
49422;SDS011;36998;51.974;20.150;2022-09-11T02:19:41;45.50;;;13.77;;
49422;SDS011;36998;51.974;20.150;2022-09-11T02:22:07;53.17;;;14.23;;
49422;SDS011;36998;51.974;20.150;2022-09-11T02:24:35;42.95;;;13.40;;
49422;SDS011;36998;51.974;20.150;2022-09-11T02:27:02;45.17;;;13.80;;
49422;SDS011;36998;51.974;20.150;2022-09-11T02:29:31;39.42;;;11.68;;
49422;SDS011;36998;51.974;20.150;2022-09-11T02:31:57;40.20;;;12.25;;
49422;SDS011;36998;51.974;20.150;2022-09-11T02:34:31;46.08;;;14.10;;
49422;SDS011;36998;51.974;20.150;2022-09-11T02:39:47;42.10;;;12.63;;
49422;SDS011;36998;51.974;20.150;2022-09-11T02:45:42;38.30;;;11.63;;
49422;SDS011;36998;51.974;20.150;2022-09-11T02:51:34;38.55;;;11.93;;
49422;SDS011;36998;51.974;20.150;2022-09-11T02:59:36;40.08;;;12.82;;
49422;SDS011;36998;51.974;20.150;2022-09-11T03:02:11;48.15;;;13.10;;
49422;SDS011;36998;51.974;20.150;2022-09-11T03:04:39;39.03;;;12.32;;
49422;SDS011;36998;51.974;20.150;2022-09-11T03:07:04;40.60;;;14.18;;
49422;SDS011;36998;51.974;20.150;2022-09-11T03:09:30;52.97;;;13.82;;
49422;SDS011;36998;51.974;20.150;2022-09-11T03:12:02;49.05;;;14.50;;
49422;SDS011;36998;51.974;20.150;2022-09-11T03:14:31;45.33;;;13.65;;
49422;SDS011;36998;51.974;20.150;2022-09-11T03:16:56;43.03;;;13.68;;
49422;SDS011;36998;51.974;20.150;2022-09-11T03:19:22;49.95;;;14.93;;
49422;SDS011;36998;51.974;20.150;2022-09-11T03:21:48;53.53;;;15.13;;
49422;SDS011;36998;51.974;20.150;2022-09-11T03:24:15;51.67;;;14.50;;
49422;SDS011;36998;51.974;20.150;2022-09-11T03:26:41;50.47;;;13.48;;
49422;SDS011;36998;51.974;20.150;2022-09-11T03:29:08;51.65;;;14.88;;
49422;SDS011;36998;51.974;20.150;2022-09-11T03:31:33;51.03;;;15.52;;
49422;SDS011;36998;51.974;20.150;2022-09-11T03:33:59;56.33;;;15.75;;
49422;SDS011;36998;51.974;20.150;2022-09-11T03:36:25;68.45;;;17.23;;
49422;SDS011;36998;51.974;20.150;2022-09-11T03:38:52;53.22;;;15.25;;
49422;SDS011;36998;51.974;20.150;2022-09-11T03:41:19;60.17;;;15.98;;
49422;SDS011;36998;51.974;20.150;2022-09-11T03:43:45;56.45;;;16.05;;
49422;SDS011;36998;51.974;20.150;2022-09-11T03:46:11;63.63;;;16.67;;
49422;SDS011;36998;51.974;20.150;2022-09-11T03:48:37;59.15;;;15.20;;
49422;SDS011;36998;51.974;20.150;2022-09-11T03:51:02;65.22;;;16.77;;
49422;SDS011;36998;51.974;20.150;2022-09-11T03:53:30;66.13;;;16.27;;
49422;SDS011;36998;51.974;20.150;2022-09-11T03:55:57;65.72;;;17.25;;
49422;SDS011;36998;51.974;20.150;2022-09-11T03:58:31;68.05;;;18.08;;
49422;SDS011;36998;51.974;20.150;2022-09-11T04:00:58;62.92;;;17.75;;
49422;SDS011;36998;51.974;20.150;2022-09-11T04:03:23;69.95;;;18.38;;
49422;SDS011;36998;51.974;20.150;2022-09-11T04:05:57;72.13;;;17.30;;
49422;SDS011;36998;51.974;20.150;2022-09-11T04:08:24;75.72;;;18.88;;
49422;SDS011;36998;51.974;20.150;2022-09-11T04:10:57;72.00;;;18.30;;
49422;SDS011;36998;51.974;20.150;2022-09-11T04:13:27;76.45;;;19.45;;
49422;SDS011;36998;51.974;20.150;2022-09-11T04:16:10;82.15;;;19.65;;
49422;SDS011;36998;51.974;20.150;2022-09-11T04:18:42;83.57;;;17.17;;
49422;SDS011;36998;51.974;20.150;2022-09-11T04:21:10;75.95;;;19.15;;
49422;SDS011;36998;51.974;20.150;2022-09-11T04:23:37;81.35;;;19.30;;
49422;SDS011;36998;51.974;20.150;2022-09-11T04:26:14;77.97;;;19.05;;
49422;SDS011;36998;51.974;20.150;2022-09-11T04:28:47;76.40;;;18.00;;
49422;SDS011;36998;51.974;20.150;2022-09-11T04:31:13;88.45;;;20.23;;
49422;SDS011;36998;51.974;20.150;2022-09-11T04:33:40;92.25;;;21.38;;
49422;SDS011;36998;51.974;20.150;2022-09-11T04:36:06;93.00;;;21.42;;
49422;SDS011;36998;51.974;20.150;2022-09-11T04:38:34;97.65;;;20.45;;
49422;SDS011;36998;51.974;20.150;2022-09-11T04:41:01;85.40;;;21.02;;
49422;SDS011;36998;51.974;20.150;2022-09-11T04:43:32;82.47;;;19.63;;
49422;SDS011;36998;51.974;20.150;2022-09-11T04:46:00;86.00;;;22.23;;
49422;SDS011;36998;51.974;20.150;2022-09-11T04:48:26;85.75;;;22.20;;
49422;SDS011;36998;51.974;20.150;2022-09-11T04:51:05;93.03;;;22.52;;
49422;SDS011;36998;51.974;20.150;2022-09-11T04:53:33;89.90;;;21.23;;
49422;SDS011;36998;51.974;20.150;2022-09-11T04:58:41;93.10;;;22.98;;
49422;SDS011;36998;51.974;20.150;2022-09-11T05:01:10;87.38;;;23.38;;
49422;SDS011;36998;51.974;20.150;2022-09-11T05:03:39;103.55;;;26.55;;
49422;SDS011;36998;51.974;20.150;2022-09-11T05:06:05;103.65;;;25.95;;
49422;SDS011;36998;51.974;20.150;2022-09-11T05:08:32;92.38;;;23.75;;
49422;SDS011;36998;51.974;20.150;2022-09-11T05:11:00;109.05;;;28.52;;
49422;SDS011;36998;51.974;20.150;2022-09-11T05:13:26;104.07;;;29.58;;
49422;SDS011;36998;51.974;20.150;2022-09-11T05:15:52;104.35;;;27.40;;
49422;SDS011;36998;51.974;20.150;2022-09-11T05:18:26;115.53;;;29.70;;
49422;SDS011;36998;51.974;20.150;2022-09-11T05:21:05;105.32;;;29.80;;
49422;SDS011;36998;51.974;20.150;2022-09-11T05:23:37;101.10;;;28.48;;
49422;SDS011;36998;51.974;20.150;2022-09-11T05:26:04;98.80;;;26.83;;
49422;SDS011;36998;51.974;20.150;2022-09-11T05:28:31;84.68;;;24.63;;
49422;SDS011;36998;51.974;20.150;2022-09-11T05:30:57;103.43;;;28.83;;
49422;SDS011;36998;51.974;20.150;2022-09-11T05:33:24;77.65;;;23.83;;
49422;SDS011;36998;51.974;20.150;2022-09-11T05:35:52;86.93;;;26.48;;
49422;SDS011;36998;51.974;20.150;2022-09-11T05:38:20;97.22;;;26.48;;
49422;SDS011;36998;51.974;20.150;2022-09-11T05:40:47;97.13;;;28.42;;
49422;SDS011;36998;51.974;20.150;2022-09-11T05:43:17;88.70;;;26.13;;
49422;SDS011;36998;51.974;20.150;2022-09-11T05:45:44;91.68;;;26.48;;
49422;SDS011;36998;51.974;20.150;2022-09-11T05:48:21;85.90;;;25.23;;
49422;SDS011;36998;51.974;20.150;2022-09-11T05:50:55;83.60;;;24.83;;
49422;SDS011;36998;51.974;20.150;2022-09-11T05:53:24;88.25;;;28.25;;
49422;SDS011;36998;51.974;20.150;2022-09-11T05:55:51;102.57;;;27.35;;
49422;SDS011;36998;51.974;20.150;2022-09-11T05:58:17;79.18;;;25.75;;
49422;SDS011;36998;51.974;20.150;2022-09-11T06:00:44;81.63;;;24.98;;
49422;SDS011;36998;51.974;20.150;2022-09-11T06:03:16;76.68;;;25.25;;
49422;SDS011;36998;51.974;20.150;2022-09-11T06:05:42;72.28;;;24.42;;
49422;SDS011;36998;51.974;20.150;2022-09-11T06:08:09;73.38;;;25.63;;
49422;SDS011;36998;51.974;20.150;2022-09-11T06:10:35;72.60;;;24.63;;
49422;SDS011;36998;51.974;20.150;2022-09-11T06:13:03;79.43;;;26.00;;
49422;SDS011;36998;51.974;20.150;2022-09-11T06:15:30;73.22;;;25.00;;
49422;SDS011;36998;51.974;20.150;2022-09-11T06:17:57;70.40;;;23.70;;
49422;SDS011;36998;51.974;20.150;2022-09-11T06:20:25;63.92;;;21.25;;
49422;SDS011;36998;51.974;20.150;2022-09-11T06:22:51;68.10;;;22.63;;
49422;SDS011;36998;51.974;20.150;2022-09-11T06:25:18;62.38;;;20.95;;
49422;SDS011;36998;51.974;20.150;2022-09-11T06:27:43;55.42;;;19.55;;
49422;SDS011;36998;51.974;20.150;2022-09-11T06:30:10;53.97;;;19.52;;
49422;SDS011;36998;51.974;20.150;2022-09-11T06:32:36;62.42;;;19.63;;
49422;SDS011;36998;51.974;20.150;2022-09-11T06:35:02;45.33;;;17.38;;
49422;SDS011;36998;51.974;20.150;2022-09-11T06:37:28;50.60;;;16.60;;
49422;SDS011;36998;51.974;20.150;2022-09-11T06:39:54;52.67;;;18.33;;
49422;SDS011;36998;51.974;20.150;2022-09-11T06:42:24;56.45;;;21.02;;
49422;SDS011;36998;51.974;20.150;2022-09-11T06:44:51;55.78;;;19.77;;
49422;SDS011;36998;51.974;20.150;2022-09-11T06:47:16;57.05;;;21.05;;
49422;SDS011;36998;51.974;20.150;2022-09-11T06:49:43;58.00;;;20.58;;
49422;SDS011;36998;51.974;20.150;2022-09-11T06:52:18;60.72;;;22.77;;
49422;SDS011;36998;51.974;20.150;2022-09-11T06:54:53;51.58;;;20.98;;
49422;SDS011;36998;51.974;20.150;2022-09-11T06:57:18;58.97;;;21.08;;
49422;SDS011;36998;51.974;20.150;2022-09-11T06:59:44;51.33;;;18.85;;
49422;SDS011;36998;51.974;20.150;2022-09-11T07:02:10;50.72;;;18.48;;
49422;SDS011;36998;51.974;20.150;2022-09-11T07:04:36;56.63;;;21.55;;
49422;SDS011;36998;51.974;20.150;2022-09-11T07:07:02;58.38;;;23.60;;
49422;SDS011;36998;51.974;20.150;2022-09-11T07:09:28;45.88;;;19.23;;
49422;SDS011;36998;51.974;20.150;2022-09-11T07:11:55;53.63;;;20.02;;
49422;SDS011;36998;51.974;20.150;2022-09-11T07:14:22;54.45;;;21.17;;
49422;SDS011;36998;51.974;20.150;2022-09-11T07:16:52;52.85;;;18.85;;
49422;SDS011;36998;51.974;20.150;2022-09-11T07:19:19;48.30;;;18.33;;
49422;SDS011;36998;51.974;20.150;2022-09-11T07:21:45;46.00;;;19.70;;
49422;SDS011;36998;51.974;20.150;2022-09-11T07:24:11;35.75;;;14.70;;
49422;SDS011;36998;51.974;20.150;2022-09-11T07:26:39;36.30;;;15.60;;
49422;SDS011;36998;51.974;20.150;2022-09-11T07:29:10;44.85;;;16.70;;
49422;SDS011;36998;51.974;20.150;2022-09-11T07:31:37;34.15;;;16.13;;
49422;SDS011;36998;51.974;20.150;2022-09-11T07:34:03;31.13;;;14.18;;
49422;SDS011;36998;51.974;20.150;2022-09-11T07:36:30;38.63;;;15.65;;
49422;SDS011;36998;51.974;20.150;2022-09-11T07:39:08;37.15;;;16.48;;
49422;SDS011;36998;51.974;20.150;2022-09-11T07:41:39;35.95;;;16.95;;
49422;SDS011;36998;51.974;20.150;2022-09-11T07:44:12;23.80;;;11.30;;
49422;SDS011;36998;51.974;20.150;2022-09-11T07:46:39;21.20;;;10.93;;
49422;SDS011;36998;51.974;20.150;2022-09-11T07:49:06;16.63;;;7.45;;
49422;SDS011;36998;51.974;20.150;2022-09-11T07:51:35;13.45;;;6.45;;
49422;SDS011;36998;51.974;20.150;2022-09-11T07:54:04;23.27;;;12.43;;
49422;SDS011;36998;51.974;20.150;2022-09-11T07:56:32;14.00;;;7.35;;
49422;SDS011;36998;51.974;20.150;2022-09-11T07:58:59;12.82;;;7.00;;
49422;SDS011;36998;51.974;20.150;2022-09-11T08:01:28;13.90;;;7.05;;
49422;SDS011;36998;51.974;20.150;2022-09-11T08:03:55;51.50;;;32.00;;
49422;SDS011;36998;51.974;20.150;2022-09-11T08:06:24;15.68;;;7.78;;
49422;SDS011;36998;51.974;20.150;2022-09-11T08:08:52;15.98;;;8.73;;
49422;SDS011;36998;51.974;20.150;2022-09-11T08:11:22;14.88;;;7.68;;
49422;SDS011;36998;51.974;20.150;2022-09-11T08:13:52;16.83;;;7.85;;
49422;SDS011;36998;51.974;20.150;2022-09-11T08:16:20;15.25;;;7.60;;
49422;SDS011;36998;51.974;20.150;2022-09-11T08:18:48;15.52;;;7.88;;
49422;SDS011;36998;51.974;20.150;2022-09-11T08:21:16;19.25;;;10.98;;
49422;SDS011;36998;51.974;20.150;2022-09-11T08:23:43;14.98;;;8.45;;
49422;SDS011;36998;51.974;20.150;2022-09-11T08:26:11;17.90;;;9.07;;
49422;SDS011;36998;51.974;20.150;2022-09-11T08:28:39;17.53;;;8.47;;
49422;SDS011;36998;51.974;20.150;2022-09-11T08:31:09;17.35;;;9.00;;
49422;SDS011;36998;51.974;20.150;2022-09-11T08:33:36;14.95;;;7.90;;
49422;SDS011;36998;51.974;20.150;2022-09-11T08:36:04;18.15;;;8.43;;
49422;SDS011;36998;51.974;20.150;2022-09-11T08:38:32;17.52;;;8.43;;
49422;SDS011;36998;51.974;20.150;2022-09-11T08:41:09;21.83;;;8.73;;
49422;SDS011;36998;51.974;20.150;2022-09-11T08:43:36;19.67;;;8.85;;
49422;SDS011;36998;51.974;20.150;2022-09-11T08:46:10;27.17;;;14.85;;
49422;SDS011;36998;51.974;20.150;2022-09-11T08:48:46;16.10;;;7.82;;
49422;SDS011;36998;51.974;20.150;2022-09-11T08:51:28;23.60;;;11.65;;
49422;SDS011;36998;51.974;20.150;2022-09-11T08:53:55;16.20;;;8.85;;
49422;SDS011;36998;51.974;20.150;2022-09-11T08:56:25;15.05;;;8.52;;
49422;SDS011;36998;51.974;20.150;2022-09-11T08:59:02;19.35;;;9.68;;
49422;SDS011;36998;51.974;20.150;2022-09-11T09:10:35;19.90;;;10.35;;
49422;SDS011;36998;51.974;20.150;2022-09-11T09:13:20;20.38;;;11.73;;
49422;SDS011;36998;51.974;20.150;2022-09-11T09:16:43;26.08;;;11.35;;
49422;SDS011;36998;51.974;20.150;2022-09-11T09:19:22;18.85;;;9.82;;
49422;SDS011;36998;51.974;20.150;2022-09-11T09:22:00;16.30;;;9.30;;
49422;SDS011;36998;51.974;20.150;2022-09-11T09:24:38;16.08;;;9.25;;
49422;SDS011;36998;51.974;20.150;2022-09-11T09:27:11;14.80;;;8.27;;
49422;SDS011;36998;51.974;20.150;2022-09-11T09:29:41;14.57;;;8.13;;
49422;SDS011;36998;51.974;20.150;2022-09-11T09:32:13;14.88;;;7.25;;
49422;SDS011;36998;51.974;20.150;2022-09-11T09:34:42;14.82;;;7.25;;
49422;SDS011;36998;51.974;20.150;2022-09-11T09:37:16;12.27;;;7.95;;
49422;SDS011;36998;51.974;20.150;2022-09-11T09:39:46;15.52;;;8.18;;
49422;SDS011;36998;51.974;20.150;2022-09-11T09:47:47;12.38;;;8.38;;
49422;SDS011;36998;51.974;20.150;2022-09-11T09:50:19;10.93;;;6.90;;
49422;SDS011;36998;51.974;20.150;2022-09-11T09:52:52;10.43;;;6.18;;
49422;SDS011;36998;51.974;20.150;2022-09-11T09:55:26;9.30;;;6.47;;
49422;SDS011;36998;51.974;20.150;2022-09-11T09:57:51;14.40;;;6.03;;
49422;SDS011;36998;51.974;20.150;2022-09-11T10:00:18;9.85;;;6.47;;
49422;SDS011;36998;51.974;20.150;2022-09-11T10:02:46;11.15;;;6.65;;
49422;SDS011;36998;51.974;20.150;2022-09-11T10:08:24;12.45;;;7.18;;
49422;SDS011;36998;51.974;20.150;2022-09-11T10:11:06;10.35;;;6.70;;
49422;SDS011;36998;51.974;20.150;2022-09-11T10:13:40;14.55;;;7.97;;
49422;SDS011;36998;51.974;20.150;2022-09-11T10:16:18;13.93;;;7.20;;
49422;SDS011;36998;51.974;20.150;2022-09-11T10:18:49;10.60;;;6.45;;
49422;SDS011;36998;51.974;20.150;2022-09-11T10:31:33;10.48;;;5.80;;
49422;SDS011;36998;51.974;20.150;2022-09-11T10:34:00;13.25;;;5.68;;
49422;SDS011;36998;51.974;20.150;2022-09-11T10:36:26;16.45;;;8.35;;
49422;SDS011;36998;51.974;20.150;2022-09-11T10:38:54;8.18;;;5.25;;
49422;SDS011;36998;51.974;20.150;2022-09-11T10:41:22;10.05;;;5.38;;
49422;SDS011;36998;51.974;20.150;2022-09-11T10:43:54;9.57;;;5.30;;
49422;SDS011;36998;51.974;20.150;2022-09-11T10:46:28;10.77;;;4.78;;
49422;SDS011;36998;51.974;20.150;2022-09-11T10:48:55;9.45;;;5.10;;
49422;SDS011;36998;51.974;20.150;2022-09-11T10:51:23;11.88;;;4.82;;
49422;SDS011;36998;51.974;20.150;2022-09-11T10:53:58;7.93;;;5.50;;
49422;SDS011;36998;51.974;20.150;2022-09-11T10:56:37;8.52;;;4.60;;
49422;SDS011;36998;51.974;20.150;2022-09-11T10:59:10;8.40;;;4.28;;
49422;SDS011;36998;51.974;20.150;2022-09-11T11:01:47;9.38;;;4.53;;
49422;SDS011;36998;51.974;20.150;2022-09-11T11:04:13;8.48;;;5.10;;
49422;SDS011;36998;51.974;20.150;2022-09-11T11:06:43;9.52;;;4.07;;
49422;SDS011;36998;51.974;20.150;2022-09-11T11:09:46;10.55;;;4.30;;
49422;SDS011;36998;51.974;20.150;2022-09-11T11:12:30;7.90;;;4.10;;
49422;SDS011;36998;51.974;20.150;2022-09-11T11:15:11;10.20;;;4.70;;
49422;SDS011;36998;51.974;20.150;2022-09-11T11:17:58;10.45;;;4.82;;
49422;SDS011;36998;51.974;20.150;2022-09-11T11:23:59;10.13;;;5.43;;
49422;SDS011;36998;51.974;20.150;2022-09-11T11:37:47;7.88;;;5.90;;
49422;SDS011;36998;51.974;20.150;2022-09-11T11:42:56;12.27;;;5.90;;
49422;SDS011;36998;51.974;20.150;2022-09-11T11:45:31;9.35;;;5.10;;
49422;SDS011;36998;51.974;20.150;2022-09-11T11:48:07;8.90;;;4.75;;
49422;SDS011;36998;51.974;20.150;2022-09-11T11:50:43;10.85;;;4.70;;
49422;SDS011;36998;51.974;20.150;2022-09-11T11:53:28;6.47;;;4.18;;
49422;SDS011;36998;51.974;20.150;2022-09-11T11:56:29;4.80;;;3.83;;
49422;SDS011;36998;51.974;20.150;2022-09-11T12:02:11;7.68;;;4.60;;
49422;SDS011;36998;51.974;20.150;2022-09-11T12:04:58;6.60;;;3.85;;
49422;SDS011;36998;51.974;20.150;2022-09-11T12:07:30;8.82;;;4.47;;
49422;SDS011;36998;51.974;20.150;2022-09-11T12:09:58;7.78;;;4.40;;
49422;SDS011;36998;51.974;20.150;2022-09-11T12:12:29;5.45;;;4.38;;
49422;SDS011;36998;51.974;20.150;2022-09-11T12:15:02;7.63;;;4.20;;
49422;SDS011;36998;51.974;20.150;2022-09-11T12:17:29;5.10;;;3.70;;
49422;SDS011;36998;51.974;20.150;2022-09-11T12:28:22;7.47;;;3.47;;
49422;SDS011;36998;51.974;20.150;2022-09-11T12:30:58;9.02;;;3.92;;
49422;SDS011;36998;51.974;20.150;2022-09-11T12:36:12;9.57;;;3.28;;
49422;SDS011;36998;51.974;20.150;2022-09-11T12:38:43;4.95;;;3.00;;
49422;SDS011;36998;51.974;20.150;2022-09-11T12:41:15;4.68;;;2.58;;
49422;SDS011;36998;51.974;20.150;2022-09-11T12:43:47;6.00;;;3.03;;
49422;SDS011;36998;51.974;20.150;2022-09-11T12:48:49;8.68;;;3.13;;
49422;SDS011;36998;51.974;20.150;2022-09-11T12:51:30;10.35;;;3.13;;
49422;SDS011;36998;51.974;20.150;2022-09-11T12:54:02;5.72;;;3.08;;
49422;SDS011;36998;51.974;20.150;2022-09-11T12:56:37;10.75;;;2.92;;
49422;SDS011;36998;51.974;20.150;2022-09-11T12:59:17;4.18;;;2.90;;
49422;SDS011;36998;51.974;20.150;2022-09-11T13:01:50;7.28;;;3.28;;
49422;SDS011;36998;51.974;20.150;2022-09-11T13:04:19;6.43;;;3.00;;
49422;SDS011;36998;51.974;20.150;2022-09-11T13:09:44;7.07;;;2.63;;
49422;SDS011;36998;51.974;20.150;2022-09-11T13:12:36;8.00;;;2.50;;
49422;SDS011;36998;51.974;20.150;2022-09-11T13:17:57;4.53;;;2.85;;
49422;SDS011;36998;51.974;20.150;2022-09-11T13:20:22;4.10;;;2.70;;
49422;SDS011;36998;51.974;20.150;2022-09-11T13:22:48;5.57;;;2.70;;
49422;SDS011;36998;51.974;20.150;2022-09-11T13:27:49;6.78;;;2.40;;
49422;SDS011;36998;51.974;20.150;2022-09-11T13:30:18;4.50;;;3.00;;
49422;SDS011;36998;51.974;20.150;2022-09-11T13:33:20;3.80;;;2.60;;
49422;SDS011;36998;51.974;20.150;2022-09-11T13:35:42;6.05;;;2.63;;
49422;SDS011;36998;51.974;20.150;2022-09-11T13:38:12;6.45;;;2.85;;
49422;SDS011;36998;51.974;20.150;2022-09-11T13:40:48;5.53;;;2.70;;
49422;SDS011;36998;51.974;20.150;2022-09-11T13:43:19;7.28;;;3.10;;
49422;SDS011;36998;51.974;20.150;2022-09-11T13:46:07;4.13;;;2.45;;
49422;SDS011;36998;51.974;20.150;2022-09-11T13:48:44;6.22;;;3.70;;
49422;SDS011;36998;51.974;20.150;2022-09-11T13:51:15;8.23;;;3.10;;
49422;SDS011;36998;51.974;20.150;2022-09-11T13:53:44;4.32;;;2.63;;
49422;SDS011;36998;51.974;20.150;2022-09-11T13:56:16;4.82;;;2.60;;
49422;SDS011;36998;51.974;20.150;2022-09-11T13:58:45;7.15;;;2.60;;
49422;SDS011;36998;51.974;20.150;2022-09-11T14:01:11;5.05;;;2.70;;
49422;SDS011;36998;51.974;20.150;2022-09-11T14:03:43;4.53;;;2.63;;
49422;SDS011;36998;51.974;20.150;2022-09-11T14:06:15;9.98;;;2.83;;
49422;SDS011;36998;51.974;20.150;2022-09-11T14:08:50;6.57;;;2.67;;
49422;SDS011;36998;51.974;20.150;2022-09-11T14:11:21;7.15;;;2.80;;
49422;SDS011;36998;51.974;20.150;2022-09-11T14:16:25;4.43;;;3.08;;
49422;SDS011;36998;51.974;20.150;2022-09-11T14:21:38;6.40;;;3.75;;
49422;SDS011;36998;51.974;20.150;2022-09-11T14:26:50;6.60;;;2.70;;
49422;SDS011;36998;51.974;20.150;2022-09-11T14:34:51;5.07;;;2.58;;
49422;SDS011;36998;51.974;20.150;2022-09-11T14:37:17;3.67;;;2.25;;
49422;SDS011;36998;51.974;20.150;2022-09-11T14:42:39;5.40;;;2.15;;
49422;SDS011;36998;51.974;20.150;2022-09-11T14:45:07;2.25;;;1.92;;
49422;SDS011;36998;51.974;20.150;2022-09-11T14:47:33;3.55;;;1.75;;
49422;SDS011;36998;51.974;20.150;2022-09-11T14:49:59;5.78;;;1.98;;
49422;SDS011;36998;51.974;20.150;2022-09-11T14:52:25;4.03;;;2.13;;
49422;SDS011;36998;51.974;20.150;2022-09-11T14:54:52;3.70;;;2.10;;
49422;SDS011;36998;51.974;20.150;2022-09-11T14:57:19;4.15;;;2.53;;
49422;SDS011;36998;51.974;20.150;2022-09-11T14:59:47;2.88;;;2.15;;
49422;SDS011;36998;51.974;20.150;2022-09-11T15:02:13;4.38;;;2.33;;
49422;SDS011;36998;51.974;20.150;2022-09-11T15:04:41;4.57;;;1.58;;
49422;SDS011;36998;51.974;20.150;2022-09-11T15:07:10;3.97;;;1.67;;
49422;SDS011;36998;51.974;20.150;2022-09-11T15:09:37;3.08;;;1.30;;
49422;SDS011;36998;51.974;20.150;2022-09-11T15:12:04;6.82;;;1.35;;
49422;SDS011;36998;51.974;20.150;2022-09-11T15:14:30;2.83;;;1.27;;
49422;SDS011;36998;51.974;20.150;2022-09-11T15:16:57;2.95;;;1.42;;
49422;SDS011;36998;51.974;20.150;2022-09-11T15:19:23;1.88;;;1.10;;
49422;SDS011;36998;51.974;20.150;2022-09-11T15:21:49;6.20;;;1.65;;
49422;SDS011;36998;51.974;20.150;2022-09-11T15:24:14;2.33;;;1.08;;
49422;SDS011;36998;51.974;20.150;2022-09-11T15:26:41;4.55;;;1.50;;
49422;SDS011;36998;51.974;20.150;2022-09-11T15:29:06;1.55;;;1.25;;
49422;SDS011;36998;51.974;20.150;2022-09-11T15:31:37;6.15;;;1.45;;
49422;SDS011;36998;51.974;20.150;2022-09-11T15:34:03;2.25;;;1.55;;
49422;SDS011;36998;51.974;20.150;2022-09-11T15:36:32;3.80;;;1.27;;
49422;SDS011;36998;51.974;20.150;2022-09-11T15:38:58;2.45;;;1.20;;
49422;SDS011;36998;51.974;20.150;2022-09-11T15:41:23;1.95;;;1.35;;
49422;SDS011;36998;51.974;20.150;2022-09-11T15:43:54;2.03;;;1.40;;
49422;SDS011;36998;51.974;20.150;2022-09-11T15:46:20;4.25;;;1.80;;
49422;SDS011;36998;51.974;20.150;2022-09-11T15:48:47;4.97;;;1.15;;
49422;SDS011;36998;51.974;20.150;2022-09-11T15:51:20;3.47;;;1.58;;
49422;SDS011;36998;51.974;20.150;2022-09-11T15:53:48;3.60;;;1.50;;
49422;SDS011;36998;51.974;20.150;2022-09-11T15:56:14;2.80;;;1.35;;
49422;SDS011;36998;51.974;20.150;2022-09-11T15:58:41;9.55;;;1.38;;
49422;SDS011;36998;51.974;20.150;2022-09-11T16:03:52;1.15;;;1.08;;
49422;SDS011;36998;51.974;20.150;2022-09-11T16:06:19;3.63;;;1.25;;
49422;SDS011;36998;51.974;20.150;2022-09-11T16:08:46;2.75;;;1.25;;
49422;SDS011;36998;51.974;20.150;2022-09-11T16:11:12;1.90;;;1.15;;
49422;SDS011;36998;51.974;20.150;2022-09-11T16:13:39;4.20;;;1.30;;
49422;SDS011;36998;51.974;20.150;2022-09-11T16:16:05;3.78;;;1.38;;
49422;SDS011;36998;51.974;20.150;2022-09-11T16:18:35;4.35;;;1.50;;
49422;SDS011;36998;51.974;20.150;2022-09-11T16:21:02;1.67;;;1.48;;
49422;SDS011;36998;51.974;20.150;2022-09-11T16:23:29;1.65;;;1.35;;
49422;SDS011;36998;51.974;20.150;2022-09-11T16:25:55;2.85;;;1.00;;
49422;SDS011;36998;51.974;20.150;2022-09-11T16:28:21;3.25;;;1.65;;
49422;SDS011;36998;51.974;20.150;2022-09-11T16:30:55;1.30;;;1.20;;
49422;SDS011;36998;51.974;20.150;2022-09-11T16:33:21;3.28;;;1.40;;
49422;SDS011;36998;51.974;20.150;2022-09-11T16:35:56;1.73;;;1.20;;
49422;SDS011;36998;51.974;20.150;2022-09-11T16:38:23;3.53;;;1.27;;
49422;SDS011;36998;51.974;20.150;2022-09-11T16:40:48;4.65;;;1.52;;